EPRZ/RZE METAR and TAF weather

Enter ICAO airport designator
Station Type Date Time Source
EPRZ METAR 2019/05/27 09:30 UTC NOAA

EPRZ 270930Z 22009KT 150V260 9999 FEW043 24/12 Q1012


Station Type Date Time Source
EPRZ Decoded METAR 2019/05/27 09:30 UTC NOAA

Rzeszow-Jasionka, Poland (EPRZ) 50-06N 022-03E 202M
May 27, 2019 - 05:30 AM EDT / 2019.05.27 0930 UTC
Wind: from the SW (220 degrees) at 10 MPH (9 KT) (direction variable):0
Visibility: greater than 7 mile(s):0
Sky conditions: mostly clear
Temperature: 75 F (24 C)
Dew Point: 53 F (12 C)
Relative Humidity: 46%
Pressure (altimeter): 29.88 in. Hg (1012 hPa)
ob: EPRZ 270930Z 22009KT 150V260 9999 FEW043 24/12 Q1012
cycle: 9

Station Type Date Time Source
EPRZ TAF 2019/05/27 06:33 UTC NOAA

TAF EPRZ 270530Z 2706/2806 20003KT 9999 SCT047
BECMG 2707/2710 20013KT PROB30
TEMPO 2713/2719 VRB15G30KT 4000 TSRA BKN030CB
TEMPO 2722/2803 4000 RA BR BKN013

Example: see airport list